Time;durP1;ratioP1;P1;durP2;ratioP2;P2;SDS_P1;SDS_P2;PMS_P1;PMS_P2;Temp;Humidity;BMP_temperature;BMP_pressure;BME280_temperature;BME280_humidity;BME280_pressure;Samples;Min_cycle;Max_cycle;Signal;HPM_P1;HPM_P2
2020/12/24 00:00:42;;;;;;;72.50;30.30;;;3.60;99.90;;;;;;4381360;32;20227;-73
2020/12/24 00:03:08;;;;;;;77.57;31.07;;;3.70;99.90;;;;;;4380902;32;20156;-73
2020/12/24 00:05:35;;;;;;;74.03;31.37;;;3.70;99.90;;;;;;4379153;32;20194;-73
2020/12/24 00:08:02;;;;;;;87.40;32.00;;;3.80;99.90;;;;;;4379992;32;20424;-73
2020/12/24 00:10:28;;;;;;;80.50;32.67;;;3.80;99.90;;;;;;4380503;32;20144;-73
2020/12/24 00:12:55;;;;;;;83.20;32.37;;;3.80;99.90;;;;;;4379887;32;20166;-73
2020/12/24 00:15:21;;;;;;;81.23;33.17;;;3.80;99.90;;;;;;4379734;32;20223;-73
2020/12/24 00:17:47;;;;;;;87.33;32.90;;;3.90;99.90;;;;;;4378976;32;20202;-73
2020/12/24 00:20:14;;;;;;;83.00;32.80;;;3.90;99.90;;;;;;4381051;32;20452;-73
2020/12/24 00:22:40;;;;;;;89.57;32.03;;;3.90;99.90;;;;;;4381187;32;20211;-73
2020/12/24 00:25:07;;;;;;;89.73;31.83;;;4.00;99.90;;;;;;4379973;32;20199;-74
2020/12/24 00:27:34;;;;;;;86.47;34.80;;;4.00;99.90;;;;;;4379679;32;20182;-73
2020/12/24 00:30:00;;;;;;;88.13;33.33;;;4.00;99.90;;;;;;4380468;32;20136;-74
2020/12/24 00:32:27;;;;;;;89.07;32.77;;;4.10;99.90;;;;;;4379522;32;20203;-73
2020/12/24 00:34:53;;;;;;;84.30;33.57;;;4.10;99.90;;;;;;4381274;32;20459;-73
2020/12/24 00:37:20;;;;;;;93.67;34.57;;;4.10;99.90;;;;;;4380765;32;20183;-73
2020/12/24 00:39:46;;;;;;;87.57;33.43;;;4.20;99.90;;;;;;4379389;32;20132;-73
2020/12/24 00:42:12;;;;;;;88.33;33.53;;;4.20;99.90;;;;;;4379903;32;20148;-73
2020/12/24 00:44:39;;;;;;;97.03;34.80;;;4.10;99.90;;;;;;4379380;32;20260;-73
2020/12/24 00:47:05;;;;;;;86.93;33.27;;;4.20;99.90;;;;;;4381101;32;20136;-73
2020/12/24 00:49:32;;;;;;;92.00;32.90;;;4.20;99.90;;;;;;4379478;32;20186;-73
2020/12/24 00:51:59;;;;;;;84.47;32.37;;;4.20;99.90;;;;;;4379329;32;20133;-73
2020/12/24 00:54:25;;;;;;;88.80;31.70;;;4.20;99.90;;;;;;4378763;32;20171;-74
2020/12/24 00:56:51;;;;;;;88.27;33.30;;;4.30;99.90;;;;;;4379297;32;20477;-74
2020/12/24 00:59:18;;;;;;;80.40;32.47;;;4.30;99.90;;;;;;4379732;32;20136;-73
2020/12/24 01:01:45;;;;;;;82.93;32.50;;;4.30;99.90;;;;;;4379232;32;20152;-73
2020/12/24 01:04:12;;;;;;;89.87;31.73;;;4.30;99.90;;;;;;4379494;32;20420;-73
2020/12/24 01:06:38;;;;;;;82.30;30.20;;;4.30;99.90;;;;;;4379178;32;20202;-73
2020/12/24 01:09:05;;;;;;;73.77;29.70;;;4.40;99.90;;;;;;4379134;32;20136;-73
2020/12/24 01:11:33;;;;;;;74.77;28.93;;;4.50;99.90;;;;;;4379179;32;20390;-73
2020/12/24 01:13:59;;;;;;;76.00;28.13;;;4.50;99.90;;;;;;4380714;32;20181;-74
2020/12/24 01:16:26;;;;;;;66.77;26.20;;;4.60;99.90;;;;;;4379086;32;20701;-73
2020/12/24 01:18:59;;;;;;;60.63;25.43;;;4.70;99.90;;;;;;4380150;32;20180;-75
2020/12/24 01:21:27;;;;;;;65.97;25.50;;;4.80;99.90;;;;;;4380560;32;20167;-75
2020/12/24 01:23:53;;;;;;;57.73;24.20;;;4.80;99.90;;;;;;4378982;32;20460;-73
2020/12/24 01:26:20;;;;;;;60.20;24.10;;;4.70;99.90;;;;;;4379218;32;20477;-74
2020/12/24 01:28:46;;;;;;;61.90;23.60;;;4.80;99.90;;;;;;4379116;32;20247;-73
2020/12/24 01:31:13;;;;;;;58.23;22.43;;;4.80;99.90;;;;;;4379011;32;20161;-73
2020/12/24 01:33:39;;;;;;;50.87;20.80;;;4.80;99.90;;;;;;4379229;32;20242;-73
2020/12/24 01:36:06;;;;;;;50.17;20.10;;;4.80;99.90;;;;;;4378781;32;20196;-73
2020/12/24 01:38:33;;;;;;;53.53;21.73;;;4.90;99.90;;;;;;4378971;32;20220;-73
2020/12/24 01:41:01;;;;;;;56.07;21.27;;;4.90;99.90;;;;;;4378980;32;20194;-72
2020/12/24 01:43:28;;;;;;;50.60;20.57;;;5.00;99.90;;;;;;4379203;32;20166;-72
2020/12/24 01:45:56;;;;;;;49.97;19.87;;;5.00;99.90;;;;;;4366659;32;20420;-73
2020/12/24 01:48:24;;;;;;;45.73;18.27;;;5.00;99.90;;;;;;4378876;32;20213;-73
2020/12/24 01:50:50;;;;;;;41.80;18.20;;;5.00;99.90;;;;;;4380292;32;20141;-73
2020/12/24 01:53:22;;;;;;;43.67;18.20;;;5.10;99.90;;;;;;4379895;32;20145;-74
2020/12/24 01:55:51;;;;;;;43.73;18.17;;;5.10;99.90;;;;;;4378781;32;20245;-74
2020/12/24 01:58:18;;;;;;;44.30;17.83;;;5.10;99.90;;;;;;4378666;32;20175;-74
2020/12/24 02:00:46;;;;;;;48.80;19.33;;;5.10;99.90;;;;;;4378755;32;20152;-73
2020/12/24 02:03:16;;;;;;;39.93;17.83;;;5.10;99.90;;;;;;4378278;32;20168;-74
2020/12/24 02:05:43;;;;;;;43.73;19.07;;;5.10;99.90;;;;;;4378664;32;20160;-74
2020/12/24 02:08:11;;;;;;;46.60;18.27;;;5.10;99.90;;;;;;4378759;32;20140;-74
2020/12/24 02:10:38;;;;;;;42.33;18.17;;;5.10;99.90;;;;;;4378844;32;20462;-74
2020/12/24 02:13:05;;;;;;;45.87;19.00;;;5.20;99.90;;;;;;4378539;32;20136;-74
2020/12/24 02:15:31;;;;;;;44.73;18.57;;;5.20;99.90;;;;;;4380017;32;20141;-74
2020/12/24 02:17:58;;;;;;;40.37;18.27;;;5.20;99.90;;;;;;4378475;32;20152;-74
2020/12/24 02:20:24;;;;;;;47.40;18.47;;;5.20;99.90;;;;;;4378618;32;20406;-74
2020/12/24 02:22:51;;;;;;;46.33;19.80;;;5.20;99.90;;;;;;4378963;32;20183;-74
2020/12/24 02:25:17;;;;;;;42.90;18.87;;;5.20;99.90;;;;;;4378352;32;20475;-74
2020/12/24 02:27:44;;;;;;;45.47;19.00;;;5.20;99.90;;;;;;4378117;32;20489;-74
2020/12/24 02:30:10;;;;;;;43.77;19.03;;;5.20;99.90;;;;;;4378723;32;20144;-74
2020/12/24 02:32:37;;;;;;;45.17;18.70;;;5.20;99.90;;;;;;4378603;32;20200;-74
2020/12/24 02:35:05;;;;;;;44.53;18.93;;;5.30;99.90;;;;;;4379010;32;20205;-72
2020/12/24 02:37:31;;;;;;;44.40;19.00;;;5.30;99.90;;;;;;4378416;32;20228;-72
2020/12/24 02:39:58;;;;;;;40.87;17.83;;;5.30;99.90;;;;;;4378386;32;20144;-73
2020/12/24 02:42:24;;;;;;;45.83;19.20;;;5.30;99.90;;;;;;4379692;32;20201;-73
2020/12/24 02:44:51;;;;;;;44.63;19.27;;;5.30;99.90;;;;;;4367628;32;20504;-73
2020/12/24 02:47:17;;;;;;;38.73;18.10;;;5.30;99.90;;;;;;4382594;32;20167;-72
2020/12/24 02:49:55;;;;;;;41.70;18.43;;;5.30;99.90;;;;;;4370391;32;20216;-72
2020/12/24 02:52:22;;;;;;;36.53;17.63;;;5.30;99.90;;;;;;4381058;32;20141;-72
2020/12/24 02:54:48;;;;;;;40.73;17.50;;;5.30;99.90;;;;;;4380923;32;20162;-72
2020/12/24 02:57:14;;;;;;;37.80;18.57;;;5.30;99.90;;;;;;4380958;32;20227;-73
2020/12/24 03:00:08;;;;;;;34.33;17.73;;;5.30;99.90;;;;;;4380991;32;20177;-73
2020/12/24 03:02:35;;;;;;;35.23;17.43;;;5.30;99.90;;;;;;4380926;32;20156;-73
2020/12/24 03:05:02;;;;;;;30.47;15.60;;;5.30;99.90;;;;;;4380937;32;20160;-73
2020/12/24 03:07:29;;;;;;;32.43;15.63;;;5.30;99.90;;;;;;4380774;32;20573;-72
2020/12/24 03:09:55;;;;;;;23.97;13.37;;;5.30;99.90;;;;;;4381787;32;20409;-72
2020/12/24 03:12:23;;;;;;;23.40;13.60;;;5.30;99.90;;;;;;4380835;32;20186;-72
2020/12/24 03:14:51;;;;;;;20.93;12.57;;;5.20;99.90;;;;;;4380818;32;20319;-73
2020/12/24 03:17:19;;;;;;;21.23;12.57;;;5.20;99.90;;;;;;4381029;32;20213;-73
2020/12/24 03:19:45;;;;;;;20.57;11.97;;;5.20;99.90;;;;;;4380713;32;20178;-72
2020/12/24 03:22:12;;;;;;;18.63;11.97;;;5.20;99.90;;;;;;4380897;32;20196;-72
2020/12/24 03:24:38;;;;;;;20.27;12.13;;;5.20;99.90;;;;;;4380048;32;20223;-72
2020/12/24 03:27:05;;;;;;;19.20;11.37;;;5.20;99.90;;;;;;4380506;32;20405;-72
2020/12/24 03:29:32;;;;;;;19.03;10.57;;;5.20;99.90;;;;;;4380564;32;20142;-71
2020/12/24 03:31:58;;;;;;;16.70;10.50;;;5.10;99.90;;;;;;4379929;32;20542;-71
2020/12/24 03:34:25;;;;;;;18.07;10.57;;;5.10;99.90;;;;;;4380525;32;20159;-72
2020/12/24 03:36:51;;;;;;;17.23;10.37;;;5.20;99.90;;;;;;4379752;32;20375;-72
2020/12/24 03:39:17;;;;;;;16.10;10.03;;;5.20;99.90;;;;;;4380514;32;20167;-72
2020/12/24 03:41:44;;;;;;;17.17;10.27;;;5.10;99.90;;;;;;4381241;32;20140;-72
2020/12/24 03:44:10;;;;;;;14.87;9.80;;;5.10;99.90;;;;;;4380549;32;20178;-71
2020/12/24 03:46:38;;;;;;;17.47;10.50;;;5.10;99.90;;;;;;4379709;32;20211;-72
2020/12/24 03:49:05;;;;;;;13.90;9.73;;;5.10;99.90;;;;;;4380240;32;20136;-72
2020/12/24 03:51:31;;;;;;;15.87;9.70;;;5.10;99.90;;;;;;4380235;32;20148;-72
2020/12/24 03:53:58;;;;;;;16.27;9.73;;;5.10;99.90;;;;;;4381613;32;20141;-72
2020/12/24 03:56:24;;;;;;;15.77;10.00;;;5.10;99.90;;;;;;4380058;32;20426;-73
2020/12/24 03:58:51;;;;;;;15.53;9.93;;;5.10;99.90;;;;;;4381575;32;20262;-73
2020/12/24 04:01:17;;;;;;;14.20;9.43;;;5.10;99.90;;;;;;4381043;32;20259;-72
2020/12/24 04:03:43;;;;;;;14.30;9.57;;;5.20;99.90;;;;;;4379964;32;20168;-73
2020/12/24 04:06:10;;;;;;;15.60;10.07;;;5.00;99.90;;;;;;4379992;32;20192;-73
2020/12/24 04:08:36;;;;;;;16.47;10.43;;;5.00;99.90;;;;;;4381409;32;20170;-72
2020/12/24 04:11:03;;;;;;;17.53;10.47;;;5.00;99.90;;;;;;4380804;32;20195;-72
2020/12/24 04:13:29;;;;;;;14.30;9.73;;;5.00;99.90;;;;;;4379766;32;20141;-73
2020/12/24 04:15:56;;;;;;;17.53;10.73;;;5.10;99.90;;;;;;4381112;32;20153;-72
2020/12/24 04:18:22;;;;;;;17.67;10.63;;;5.10;99.90;;;;;;4379376;32;20233;-72
2020/12/24 04:20:57;;;;;;;14.93;9.80;;;5.10;99.90;;;;;;4381255;32;20144;-73
2020/12/24 04:23:24;;;;;;;15.23;10.07;;;5.10;99.90;;;;;;4379705;32;20140;-72
2020/12/24 04:25:51;;;;;;;16.33;10.13;;;5.10;99.90;;;;;;4379748;32;20155;-72
2020/12/24 04:28:17;;;;;;;15.57;10.17;;;5.20;99.90;;;;;;4379772;32;20194;-72
2020/12/24 04:30:44;;;;;;;17.83;10.83;;;5.20;99.90;;;;;;4379922;32;20148;-72
2020/12/24 04:33:11;;;;;;;19.17;11.17;;;5.30;99.90;;;;;;4379653;32;20184;-73
2020/12/24 04:35:37;;;;;;;18.03;10.77;;;5.30;99.90;;;;;;4379500;32;20194;-73
2020/12/24 04:38:05;;;;;;;15.70;10.27;;;5.30;99.90;;;;;;4379598;32;20195;-73
2020/12/24 04:40:32;;;;;;;18.13;11.10;;;5.30;99.90;;;;;;4379653;32;20163;-73
2020/12/24 04:42:59;;;;;;;16.67;10.37;;;5.40;99.90;;;;;;4379343;32;20160;-73
2020/12/24 04:45:26;;;;;;;18.10;11.03;;;5.50;99.90;;;;;;4379496;32;20148;-72
2020/12/24 04:47:57;;;;;;;16.40;9.90;;;5.50;99.90;;;;;;4379477;32;20202;-72
2020/12/24 04:50:29;;;;;;;16.67;10.43;;;5.50;99.90;;;;;;4379475;32;20241;-72
2020/12/24 04:52:57;;;;;;;15.67;10.23;;;5.60;99.90;;;;;;4381086;32;20453;-74
2020/12/24 04:55:23;;;;;;;16.63;10.50;;;5.60;99.90;;;;;;4379432;32;20156;-73
2020/12/24 04:57:50;;;;;;;17.23;10.60;;;5.60;99.90;;;;;;4379211;32;20184;-73
2020/12/24 05:00:17;;;;;;;19.73;11.27;;;5.60;99.90;;;;;;4379292;32;20139;-73
2020/12/24 05:02:44;;;;;;;17.27;10.67;;;5.60;99.90;;;;;;4379813;32;20382;-73
2020/12/24 05:05:11;;;;;;;16.70;10.77;;;5.50;99.90;;;;;;4378948;32;20199;-73
2020/12/24 05:07:41;;;;;;;17.13;10.47;;;5.60;99.90;;;;;;4379092;32;20140;-73
2020/12/24 05:10:13;;;;;;;17.93;11.07;;;5.60;99.90;;;;;;4379178;32;20137;-72
2020/12/24 05:12:39;;;;;;;17.63;11.00;;;5.60;99.90;;;;;;4380837;32;20183;-73
2020/12/24 05:15:06;;;;;;;17.40;11.27;;;5.50;99.90;;;;;;4380643;32;20195;-73
2020/12/24 05:17:33;;;;;;;20.10;12.10;;;5.60;99.90;;;;;;4378947;32;20223;-73
2020/12/24 05:20:05;;;;;;;20.30;11.47;;;5.70;99.90;;;;;;4379173;32;20512;-73
2020/12/24 05:22:32;;;;;;;19.63;11.87;;;5.70;99.90;;;;;;4365339;32;20518;-73
2020/12/24 05:25:19;;;;;;;19.23;12.10;;;5.70;99.90;;;;;;4379254;32;20207;-72
2020/12/24 05:27:57;;;;;;;19.90;11.77;;;5.80;99.90;;;;;;4379489;32;20176;-73
2020/12/24 05:30:25;;;;;;;22.53;13.23;;;5.80;99.90;;;;;;4379174;32;20194;-72
2020/12/24 05:32:51;;;;;;;21.80;12.77;;;5.90;99.90;;;;;;4379136;32;20455;-73
2020/12/24 05:35:22;;;;;;;22.87;12.83;;;5.80;99.90;;;;;;4380355;32;20144;-73
2020/12/24 05:37:52;;;;;;;24.60;13.43;;;5.90;99.90;;;;;;4378862;32;20521;-73
2020/12/24 05:40:20;;;;;;;24.00;14.10;;;5.80;99.90;;;;;;4380372;32;20149;-73
2020/12/24 05:42:58;;;;;;;25.00;14.53;;;5.90;99.90;;;;;;4379109;32;20163;-72
2020/12/24 05:45:32;;;;;;;23.03;13.37;;;6.00;99.90;;;;;;4378839;32;20139;-73
2020/12/24 05:48:05;;;;;;;23.30;13.70;;;6.00;99.90;;;;;;4378288;32;20168;-73
2020/12/24 05:50:31;;;;;;;24.77;14.53;;;6.00;99.90;;;;;;4379010;32;20197;-73
2020/12/24 05:53:14;;;;;;;26.00;14.63;;;6.00;99.90;;;;;;4379577;32;20144;-73
2020/12/24 05:55:42;;;;;;;24.03;13.87;;;6.10;99.90;;;;;;4378866;32;20195;-73
2020/12/24 05:58:09;;;;;;;27.63;15.20;;;6.10;99.90;;;;;;4378945;32;20173;-73
2020/12/24 06:00:43;;;;;;;28.43;15.50;;;6.20;99.90;;;;;;4378449;32;20178;-73
2020/12/24 06:03:17;;;;;;;29.97;16.40;;;6.20;99.90;;;;;;4380081;32;20449;-72
2020/12/24 06:05:53;;;;;;;26.30;15.50;;;6.20;99.90;;;;;;4378691;32;20201;-72
2020/12/24 06:08:32;;;;;;;32.00;18.30;;;6.30;99.90;;;;;;4379585;32;20183;-72
2020/12/24 06:11:07;;;;;;;32.57;17.10;;;6.40;99.90;;;;;;4380054;32;20165;-72
2020/12/24 06:13:45;;;;;;;33.33;17.60;;;6.50;99.90;;;;;;4380188;32;20197;-73
2020/12/24 06:16:13;;;;;;;36.93;18.83;;;6.50;99.90;;;;;;4378754;32;20142;-73
2020/12/24 06:18:45;;;;;;;34.13;18.20;;;6.60;99.90;;;;;;4383213;32;20227;-73
2020/12/24 06:21:19;;;;;;;39.40;20.10;;;6.70;99.90;;;;;;4381791;32;20184;-73
2020/12/24 06:23:58;;;;;;;38.27;20.37;;;6.70;99.90;;;;;;4381514;32;20205;-73
2020/12/24 06:26:29;;;;;;;36.80;20.13;;;6.80;99.90;;;;;;4381450;32;20410;-73
2020/12/24 06:29:00;;;;;;;37.23;19.90;;;7.00;99.90;;;;;;4381913;32;20173;-73
2020/12/24 06:31:28;;;;;;;39.33;19.90;;;7.00;99.90;;;;;;4381360;32;20219;-73
2020/12/24 06:33:54;;;;;;;34.83;19.37;;;7.00;99.90;;;;;;4380809;32;20135;-73
2020/12/24 06:36:33;;;;;;;37.00;19.83;;;7.10;99.90;;;;;;4380959;32;20452;-74
2020/12/24 06:38:59;;;;;;;36.83;19.77;;;7.20;99.90;;;;;;4382874;32;20198;-73
2020/12/24 06:41:34;;;;;;;37.40;20.37;;;7.20;99.90;;;;;;4381223;32;20214;-74
2020/12/24 06:44:00;;;;;;;34.67;19.13;;;7.20;99.90;;;;;;4381701;32;20239;-74
2020/12/24 06:46:27;;;;;;;36.57;19.97;;;7.30;99.90;;;;;;4382585;32;20166;-74
2020/12/24 06:49:05;;;;;;;36.00;19.53;;;7.30;99.90;;;;;;4381256;32;20489;-74
2020/12/24 06:51:49;;;;;;;33.73;18.93;;;7.40;99.90;;;;;;4381098;32;20185;-74
2020/12/24 06:54:33;;;;;;;35.87;18.90;;;7.50;99.90;;;;;;4381921;32;20195;-74
2020/12/24 06:57:25;;;;;;;34.33;18.37;;;7.50;99.90;;;;;;4380445;32;20199;-74
2020/12/24 07:00:17;;;;;;;36.93;19.13;;;7.50;99.90;;;;;;4380642;32;20139;-74
2020/12/24 07:02:45;;;;;;;32.73;18.33;;;7.60;99.90;;;;;;4380588;32;20141;-75
2020/12/24 07:05:40;;;;;;;33.80;18.83;;;7.60;99.90;;;;;;4380443;32;20174;-74
2020/12/24 07:08:07;;;;;;;33.97;19.60;;;7.70;99.90;;;;;;4380491;32;20140;-74
2020/12/24 07:10:47;;;;;;;34.90;19.27;;;7.70;99.90;;;;;;4380436;32;20150;-76
2020/12/24 07:13:34;;;;;;;33.70;19.03;;;7.80;99.90;;;;;;4380500;32;20168;-73
2020/12/24 07:16:04;;;;;;;33.97;18.43;;;7.80;99.90;;;;;;4379900;32;20533;-74
2020/12/24 07:18:34;;;;;;;31.00;17.63;;;7.80;99.90;;;;;;4381760;32;20145;-73
2020/12/24 07:21:05;;;;;;;33.70;18.77;;;7.90;99.90;;;;;;4381656;32;20414;-75
2020/12/24 07:23:37;;;;;;;31.57;18.33;;;7.90;99.90;;;;;;4381842;32;20144;-75
2020/12/24 07:26:11;;;;;;;31.70;18.33;;;7.90;99.90;;;;;;4381883;32;20457;-75
2020/12/24 07:28:39;;;;;;;30.87;18.43;;;8.00;99.90;;;;;;4380085;32;20142;-75
2020/12/24 07:31:10;;;;;;;29.10;17.53;;;8.00;99.90;;;;;;4379656;32;20144;-74
2020/12/24 07:33:44;;;;;;;31.07;17.67;;;8.10;99.90;;;;;;4380391;32;20150;-74
2020/12/24 07:36:11;;;;;;;30.07;17.13;;;8.10;99.90;;;;;;4381759;32;20367;-75
2020/12/24 07:38:38;;;;;;;29.70;17.83;;;8.10;99.90;;;;;;4380017;32;20151;-75
2020/12/24 07:41:04;;;;;;;28.93;17.90;;;8.10;99.90;;;;;;4380047;32;20414;-74
2020/12/24 07:43:31;;;;;;;27.53;17.07;;;8.20;99.90;;;;;;4379974;32;20148;-73
2020/12/24 07:46:06;;;;;;;32.63;18.03;;;8.20;99.90;;;;;;4381392;32;20158;-74
2020/12/24 07:48:33;;;;;;;31.20;17.83;;;8.30;99.90;;;;;;4380408;32;20360;-74
2020/12/24 07:51:07;;;;;;;29.63;17.63;;;8.30;99.90;;;;;;4379971;32;20281;-73
2020/12/24 07:53:34;;;;;;;30.03;18.20;;;8.30;99.90;;;;;;4381467;32;20140;-74
2020/12/24 07:56:05;;;;;;;29.03;17.70;;;8.40;99.90;;;;;;4380573;32;20181;-75
2020/12/24 07:58:31;;;;;;;29.80;17.30;;;8.40;99.90;;;;;;4379659;32;20193;-74
2020/12/24 08:01:01;;;;;;;30.93;17.47;;;8.40;99.90;;;;;;4379727;32;20215;-73
2020/12/24 08:03:28;;;;;;;30.37;17.97;;;8.40;99.90;;;;;;4379876;32;20146;-74
2020/12/24 08:06:03;;;;;;;29.63;17.97;;;8.40;99.90;;;;;;4379941;32;20157;-75
2020/12/24 08:08:31;;;;;;;29.37;16.93;;;8.40;99.90;;;;;;4379331;32;20182;-74
2020/12/24 08:10:58;;;;;;;30.87;17.20;;;8.50;99.90;;;;;;4380139;32;20149;-75
2020/12/24 08:13:24;;;;;;;30.20;17.23;;;8.50;99.90;;;;;;4379256;32;20168;-75
2020/12/24 08:15:52;;;;;;;30.37;16.63;;;8.50;99.90;;;;;;4379373;32;20477;-75
2020/12/24 08:18:26;;;;;;;29.67;17.73;;;8.50;99.90;;;;;;4379441;32;20217;-76
2020/12/24 08:20:52;;;;;;;29.87;17.27;;;8.50;99.90;;;;;;4379864;32;20223;-75
2020/12/24 08:23:59;;;;;;;29.37;16.73;;;8.50;99.90;;;;;;4381262;32;20167;-74
2020/12/24 08:26:25;;;;;;;30.27;16.90;;;8.60;99.90;;;;;;4380220;32;20162;-74
2020/12/24 08:28:57;;;;;;;29.13;17.63;;;8.70;99.90;;;;;;4379617;32;20134;-74
2020/12/24 08:31:26;;;;;;;29.03;16.60;;;8.70;99.90;;;;;;4379206;32;20143;-74
2020/12/24 08:33:54;;;;;;;28.10;16.50;;;8.80;99.90;;;;;;4379549;32;20205;-75
2020/12/24 08:36:23;;;;;;;30.73;17.57;;;8.80;99.90;;;;;;4379468;32;20246;-75
2020/12/24 08:38:50;;;;;;;27.47;16.20;;;8.90;99.90;;;;;;4378856;32;20525;-75
2020/12/24 08:41:24;;;;;;;27.80;16.07;;;8.90;99.90;;;;;;4379498;32;20138;-76
2020/12/24 08:43:53;;;;;;;27.63;15.33;;;9.00;99.90;;;;;;4379525;32;20497;-75
2020/12/24 08:46:20;;;;;;;24.23;15.23;;;9.00;99.90;;;;;;4379318;32;20139;-76
2020/12/24 08:48:47;;;;;;;24.57;15.07;;;9.00;99.90;;;;;;4379070;32;20550;-75
2020/12/24 08:51:16;;;;;;;28.80;15.63;;;9.10;99.90;;;;;;4380780;32;20510;-75
2020/12/24 08:53:50;;;;;;;24.90;14.23;;;9.10;99.90;;;;;;4380893;32;20193;-75
2020/12/24 08:56:17;;;;;;;23.73;14.17;;;9.20;99.90;;;;;;4379424;32;20169;-75
2020/12/24 08:58:53;;;;;;;22.43;13.50;;;9.30;99.90;;;;;;4379362;32;20195;-75
2020/12/24 09:01:21;;;;;;;22.07;12.77;;;9.30;99.90;;;;;;4378498;32;20143;-75
2020/12/24 09:03:48;;;;;;;20.80;12.23;;;9.30;99.90;;;;;;4379595;32;20216;-75
2020/12/24 09:06:16;;;;;;;16.27;11.20;;;9.40;99.90;;;;;;4380690;32;20162;-75
2020/12/24 09:08:50;;;;;;;21.13;10.80;;;9.50;99.90;;;;;;4379603;32;20143;-75
2020/12/24 09:11:31;;;;;;;16.43;10.40;;;9.50;99.90;;;;;;4379053;32;20199;-75
2020/12/24 09:14:05;;;;;;;17.70;10.17;;;9.60;99.90;;;;;;4379048;32;20528;-74
2020/12/24 09:16:33;;;;;;;16.77;9.83;;;9.70;99.90;;;;;;4366028;32;20247;-76
2020/12/24 09:19:08;;;;;;;14.73;9.50;;;9.70;99.90;;;;;;4379883;32;20179;-76
2020/12/24 09:21:35;;;;;;;14.33;8.97;;;9.80;99.90;;;;;;4380844;32;20164;-75
2020/12/24 09:24:12;;;;;;;14.67;8.93;;;9.90;99.90;;;;;;4380335;32;20159;-75
2020/12/24 09:26:45;;;;;;;14.37;8.77;;;9.90;99.90;;;;;;4379619;32;20167;-76
2020/12/24 09:29:12;;;;;;;12.83;8.13;;;9.90;99.90;;;;;;4380079;32;20191;-76
2020/12/24 09:31:39;;;;;;;15.43;8.23;;;9.90;99.90;;;;;;4378631;32;20172;-75
2020/12/24 09:34:06;;;;;;;13.73;8.33;;;10.00;99.90;;;;;;4380248;32;20457;-76
2020/12/24 09:36:33;;;;;;;11.87;7.83;;;10.00;99.90;;;;;;4378634;32;20213;-77
2020/12/24 09:38:59;;;;;;;13.33;7.73;;;10.00;99.90;;;;;;4378929;32;20143;-77
2020/12/24 09:41:26;;;;;;;11.60;7.77;;;10.00;99.90;;;;;;4379341;32;20431;-76
2020/12/24 09:43:52;;;;;;;11.33;7.10;;;10.00;99.90;;;;;;4378859;32;20178;-78
2020/12/24 09:46:19;;;;;;;13.63;7.27;;;10.10;99.90;;;;;;4379596;32;20167;-76
2020/12/24 09:48:46;;;;;;;11.93;7.10;;;10.00;99.90;;;;;;4378822;32;20144;-77
2020/12/24 09:51:13;;;;;;;11.53;6.87;;;10.10;99.90;;;;;;4381930;32;20173;-77
2020/12/24 09:53:39;;;;;;;10.83;7.00;;;10.00;99.90;;;;;;4381942;32;20423;-77
2020/12/24 09:56:05;;;;;;;10.43;6.70;;;10.00;99.90;;;;;;4382299;32;20142;-76
2020/12/24 09:58:32;;;;;;;12.50;6.93;;;10.10;99.90;;;;;;4381826;32;20143;-77
2020/12/24 10:00:59;;;;;;;11.97;6.43;;;10.20;99.90;;;;;;4381652;32;20170;-76
2020/12/24 10:03:25;;;;;;;12.10;7.00;;;10.10;99.90;;;;;;4381519;32;20136;-76
2020/12/24 10:05:51;;;;;;;11.17;6.50;;;10.10;99.90;;;;;;4382693;32;20557;-76
2020/12/24 10:08:18;;;;;;;11.50;6.53;;;10.20;99.90;;;;;;4380735;32;20351;-77
2020/12/24 10:10:44;;;;;;;11.00;7.47;;;10.20;99.90;;;;;;4381695;32;20141;-75
2020/12/24 10:13:11;;;;;;;9.60;6.07;;;10.20;99.90;;;;;;4381302;32;20139;-78
2020/12/24 10:15:37;;;;;;;10.90;5.80;;;10.20;99.90;;;;;;4381837;32;20142;-77
2020/12/24 10:18:04;;;;;;;9.33;5.73;;;10.20;99.90;;;;;;4380583;32;20206;-76
2020/12/24 10:20:31;;;;;;;9.97;5.70;;;10.20;99.90;;;;;;4381836;32;20244;-76
2020/12/24 10:22:57;;;;;;;8.03;5.40;;;10.20;99.90;;;;;;4382751;32;20399;-74
2020/12/24 10:25:24;;;;;;;9.60;5.47;;;10.20;99.90;;;;;;4381332;32;20178;-76
2020/12/24 10:27:50;;;;;;;10.40;5.80;;;10.10;99.90;;;;;;4381441;32;20228;-74
2020/12/24 10:30:17;;;;;;;10.57;5.47;;;10.10;99.90;;;;;;4382412;32;20167;-75
2020/12/24 10:32:44;;;;;;;8.37;5.20;;;10.10;99.90;;;;;;4382382;32;20148;-76
2020/12/24 10:35:11;;;;;;;8.67;4.87;;;10.20;99.90;;;;;;4382635;32;20238;-76
2020/12/24 10:37:40;;;;;;;9.07;5.30;;;10.10;99.90;;;;;;4381121;32;20229;-74
2020/12/24 10:40:06;;;;;;;9.07;4.97;;;10.10;99.90;;;;;;4381247;32;20144;-77
2020/12/24 10:42:33;;;;;;;8.57;5.03;;;10.10;99.90;;;;;;4381200;32;20164;-74
2020/12/24 10:45:00;;;;;;;8.57;4.90;;;10.10;99.90;;;;;;4382259;32;20182;-75
2020/12/24 10:47:29;;;;;;;6.80;4.43;;;10.10;99.90;;;;;;4381626;32;20422;-75
2020/12/24 10:49:55;;;;;;;11.53;5.30;;;10.10;99.90;;;;;;4382254;32;20147;-74
2020/12/24 10:52:22;;;;;;;8.03;4.47;;;10.10;99.90;;;;;;4380826;32;20431;-75
2020/12/24 10:55:03;;;;;;;7.97;4.43;;;10.10;99.90;;;;;;4382320;32;20151;-75
2020/12/24 10:57:29;;;;;;;7.53;4.13;;;10.20;99.90;;;;;;4380799;32;20194;-75
2020/12/24 10:59:56;;;;;;;7.20;4.50;;;10.20;99.90;;;;;;4381099;32;20210;-75
2020/12/24 11:02:22;;;;;;;8.73;4.23;;;10.20;99.90;;;;;;4380020;32;20170;-74
2020/12/24 11:04:48;;;;;;;8.80;4.47;;;10.20;99.90;;;;;;4381090;32;20218;-75
2020/12/24 11:07:15;;;;;;;9.93;4.17;;;10.20;99.90;;;;;;4381549;32;20501;-76
2020/12/24 11:09:41;;;;;;;6.67;4.27;;;10.20;99.90;;;;;;4382163;32;20187;-74
2020/12/24 11:12:08;;;;;;;6.57;4.40;;;10.20;99.90;;;;;;4380692;32;20229;-74
2020/12/24 11:14:34;;;;;;;9.53;4.50;;;10.20;99.90;;;;;;4380672;32;20234;-75
2020/12/24 11:17:02;;;;;;;8.20;4.33;;;10.20;99.90;;;;;;4380587;32;20550;-76
2020/12/24 11:19:29;;;;;;;7.67;4.93;;;10.20;99.90;;;;;;4380501;32;20522;-76
2020/12/24 11:21:56;;;;;;;7.77;4.90;;;10.20;99.90;;;;;;4380555;32;20207;-75
2020/12/24 11:24:22;;;;;;;8.53;5.07;;;10.10;99.90;;;;;;4380847;32;20158;-75
2020/12/24 11:26:48;;;;;;;8.67;5.03;;;10.10;99.90;;;;;;4380676;32;20193;-76
2020/12/24 11:29:15;;;;;;;9.70;5.30;;;10.10;99.90;;;;;;4380304;32;20148;-75
2020/12/24 11:31:41;;;;;;;10.97;5.30;;;10.10;99.90;;;;;;4380354;32;20199;-74
2020/12/24 11:34:08;;;;;;;11.47;5.03;;;10.10;99.90;;;;;;4381645;32;20174;-75
2020/12/24 11:36:35;;;;;;;8.47;5.10;;;10.10;99.90;;;;;;4380273;32;20209;-74
2020/12/24 11:39:04;;;;;;;9.30;5.03;;;10.00;99.90;;;;;;4380309;32;20159;-74
2020/12/24 11:41:31;;;;;;;9.70;5.07;;;10.00;99.90;;;;;;4380567;32;20204;-74
2020/12/24 11:43:58;;;;;;;9.03;5.17;;;10.00;99.90;;;;;;4380884;32;20147;-75
2020/12/24 11:46:26;;;;;;;8.63;5.00;;;9.90;99.90;;;;;;4380455;32;20156;-75
2020/12/24 11:48:54;;;;;;;8.93;5.30;;;10.00;99.90;;;;;;4381568;32;20435;-75
2020/12/24 11:51:21;;;;;;;9.73;5.27;;;10.00;99.90;;;;;;4380362;32;20171;-76
2020/12/24 11:53:49;;;;;;;10.27;5.37;;;9.90;99.90;;;;;;4380049;32;20408;-75
2020/12/24 11:56:16;;;;;;;9.53;6.00;;;10.00;99.90;;;;;;4381285;32;20198;-75
2020/12/24 11:58:44;;;;;;;10.07;5.80;;;10.00;99.90;;;;;;4381484;32;20140;-75
2020/12/24 12:01:17;;;;;;;11.27;6.30;;;10.00;99.90;;;;;;4380869;32;20224;-75
2020/12/24 12:03:45;;;;;;;10.23;6.20;;;10.00;99.90;;;;;;4380385;32;20455;-74
2020/12/24 12:06:12;;;;;;;9.47;5.80;;;10.00;99.90;;;;;;4381308;32;20457;-75
2020/12/24 12:08:43;;;;;;;9.37;6.20;;;10.00;99.90;;;;;;4380051;32;20393;-74
2020/12/24 12:11:09;;;;;;;12.03;6.07;;;9.90;99.90;;;;;;4381182;32;20171;-75
2020/12/24 12:13:36;;;;;;;10.60;6.47;;;10.00;99.90;;;;;;4381954;32;20135;-74
2020/12/24 12:16:07;;;;;;;12.60;7.43;;;10.00;99.90;;;;;;4379680;32;20140;-75
2020/12/24 12:18:35;;;;;;;10.57;6.60;;;10.00;99.90;;;;;;4381473;32;20210;-74
2020/12/24 12:21:03;;;;;;;10.20;6.57;;;10.00;99.90;;;;;;4380631;32;20143;-74
2020/12/24 12:23:30;;;;;;;11.63;6.30;;;10.00;99.90;;;;;;4379638;32;20453;-74
2020/12/24 12:26:07;;;;;;;9.13;5.90;;;10.00;99.90;;;;;;4379829;32;20196;-74
2020/12/24 12:28:34;;;;;;;8.17;5.60;;;9.90;99.90;;;;;;4379513;32;20528;-74
2020/12/24 12:31:00;;;;;;;10.30;5.40;;;9.90;99.90;;;;;;4380905;32;20244;-74
2020/12/24 12:33:27;;;;;;;9.93;4.97;;;9.90;99.90;;;;;;4380936;32;20338;-75
2020/12/24 12:35:53;;;;;;;8.10;3.70;;;9.90;99.90;;;;;;4380150;32;20463;-72
2020/12/24 12:38:20;;;;;;;6.67;4.07;;;9.80;99.90;;;;;;4378828;32;20304;-73
2020/12/24 12:40:46;;;;;;;7.53;4.23;;;9.80;99.90;;;;;;4379353;32;20140;-73
2020/12/24 12:43:13;;;;;;;6.77;3.77;;;9.70;99.90;;;;;;4380019;32;20151;-72
2020/12/24 12:45:39;;;;;;;6.50;2.83;;;9.60;99.90;;;;;;4379366;32;20165;-71